Airfield :
LOGIN :

Register | Disclaimer

   EN    FR    IT 

 










Legend :    VFR   Marginal VFR   IFR   Intensive IFR   Very Intensive IFR
Visi :
Ceiling :
>= 8 km
>= 3000ft
5 to 8 km
1000 to 3000 ft
1500m to 5 km
500 to 1000 ft
800 to 1500m
200 to 500 ft
< 800m
< 200 ft
Symbols :   Thunderstorms  Fog  Heavy snow  Heavy precipitations  Wind > 20 kt
SIGMETs :     Misc.  Thunderstorms  Icing  Turbulence  Mountain Waves  Volcanic Ashes







- Airport Elevation : 32 ft
- IATA code : LKZ


EGUL - RAF Lakenheath

CURRENT METAR :
  • 221256Z AUTO 25013KT 9999 BKN042 23/14 A3019 RMK AO2 SLP226 T02280141 $

EXPIRED METARs :
  • 221156Z AUTO 26011G18KT 9999 CLR 23/14 A3020 RMK AO2 SLP230 T02290139 10229 20125 57006 $
  • 221056Z AUTO 25012KT 9999 CLR 22/14 A3021 RMK AO2 SLP233 T02180142 $

TAF TAF EGUL
Valid from the 22 at 13:00 until the 23 at 19:00 UTC


221300Z 2213/2319 24012G18KT 9999 SCT050 QNH3020INS
BECMG 2217/2218 23009KT 9999 SCT050 QNH3024INS
BECMG 2304/2305 23006KT 8000 BR FEW010 QNH3024INS
BECMG 2309/2310 24006KT 9999 NSW FEW200 QNH3018INS TX27/2314Z TN14/2305Z LAST NO AMDS AFT 2213 NEXT 2605
No reported NOTAMs for that airfield.



MET'MAP, your aeronautical weather chart ! - Copyright ORBIFLY December 2007 - Disclaimer

ORBIFLY MET'MAP TEAM :

Programming & Development : Alexandra Zaïnal
Concept & Development : Baudouin d'Aumeries
Co-Development & Prog : Marc-Olivier Méhu
Technical & hardware support : Manuel Goepfert

Contact : metmap@orbifly.com




SOURCES & CREDITS :

   NOAA